sensor_id;sensor_type;location;lat;lon;timestamp;P1;durP1;ratioP1;P2;durP2;ratioP2
21170;SDS011;10743;52.160;20.910;2022-10-31T00:01:24;58.70;;;26.40;;
21170;SDS011;10743;52.160;20.910;2022-10-31T00:03:54;59.63;;;26.03;;
21170;SDS011;10743;52.160;20.910;2022-10-31T00:06:21;56.90;;;26.90;;
21170;SDS011;10743;52.160;20.910;2022-10-31T00:08:53;67.03;;;29.23;;
21170;SDS011;10743;52.160;20.910;2022-10-31T00:11:26;70.13;;;30.88;;
21170;SDS011;10743;52.160;20.910;2022-10-31T00:13:53;67.27;;;30.73;;
21170;SDS011;10743;52.160;20.910;2022-10-31T00:16:21;64.13;;;29.55;;
21170;SDS011;10743;52.160;20.910;2022-10-31T00:18:50;65.32;;;28.38;;
21170;SDS011;10743;52.160;20.910;2022-10-31T00:21:19;59.33;;;27.30;;
21170;SDS011;10743;52.160;20.910;2022-10-31T00:23:47;60.00;;;26.08;;
21170;SDS011;10743;52.160;20.910;2022-10-31T00:26:14;59.13;;;26.73;;
21170;SDS011;10743;52.160;20.910;2022-10-31T00:28:41;55.40;;;25.60;;
21170;SDS011;10743;52.160;20.910;2022-10-31T00:31:10;56.10;;;26.20;;
21170;SDS011;10743;52.160;20.910;2022-10-31T00:33:39;56.90;;;25.55;;
21170;SDS011;10743;52.160;20.910;2022-10-31T00:36:07;49.97;;;24.20;;
21170;SDS011;10743;52.160;20.910;2022-10-31T00:38:40;53.28;;;24.00;;
21170;SDS011;10743;52.160;20.910;2022-10-31T00:41:08;43.55;;;22.42;;
21170;SDS011;10743;52.160;20.910;2022-10-31T00:43:39;46.28;;;21.60;;
21170;SDS011;10743;52.160;20.910;2022-10-31T00:46:07;47.27;;;23.13;;
21170;SDS011;10743;52.160;20.910;2022-10-31T00:48:35;53.42;;;24.85;;
21170;SDS011;10743;52.160;20.910;2022-10-31T00:51:02;56.27;;;22.63;;
21170;SDS011;10743;52.160;20.910;2022-10-31T00:53:31;46.63;;;23.93;;
21170;SDS011;10743;52.160;20.910;2022-10-31T00:55:58;55.70;;;25.07;;
21170;SDS011;10743;52.160;20.910;2022-10-31T00:58:25;56.23;;;24.70;;
21170;SDS011;10743;52.160;20.910;2022-10-31T01:00:52;55.93;;;26.03;;
21170;SDS011;10743;52.160;20.910;2022-10-31T01:03:23;54.70;;;25.83;;
21170;SDS011;10743;52.160;20.910;2022-10-31T01:06:03;55.57;;;26.07;;
21170;SDS011;10743;52.160;20.910;2022-10-31T01:08:36;51.27;;;25.30;;
21170;SDS011;10743;52.160;20.910;2022-10-31T01:11:06;56.38;;;26.00;;
21170;SDS011;10743;52.160;20.910;2022-10-31T01:13:38;60.80;;;26.30;;
21170;SDS011;10743;52.160;20.910;2022-10-31T01:16:06;55.90;;;25.73;;
21170;SDS011;10743;52.160;20.910;2022-10-31T01:18:35;53.20;;;25.08;;
21170;SDS011;10743;52.160;20.910;2022-10-31T01:21:36;51.58;;;25.42;;
21170;SDS011;10743;52.160;20.910;2022-10-31T01:23:57;51.13;;;24.10;;
21170;SDS011;10743;52.160;20.910;2022-10-31T01:26:25;55.33;;;25.17;;
21170;SDS011;10743;52.160;20.910;2022-10-31T01:28:56;54.30;;;25.53;;
21170;SDS011;10743;52.160;20.910;2022-10-31T01:31:28;47.20;;;24.50;;
21170;SDS011;10743;52.160;20.910;2022-10-31T01:34:01;54.20;;;25.63;;
21170;SDS011;10743;52.160;20.910;2022-10-31T01:36:32;54.50;;;26.00;;
21170;SDS011;10743;52.160;20.910;2022-10-31T01:39:06;55.57;;;25.90;;
21170;SDS011;10743;52.160;20.910;2022-10-31T01:41:41;56.83;;;26.23;;
21170;SDS011;10743;52.160;20.910;2022-10-31T01:46:47;64.33;;;29.43;;
21170;SDS011;10743;52.160;20.910;2022-10-31T01:49:21;62.53;;;28.33;;
21170;SDS011;10743;52.160;20.910;2022-10-31T01:52:14;59.63;;;27.50;;
21170;SDS011;10743;52.160;20.910;2022-10-31T01:55:26;53.60;;;27.43;;
21170;SDS011;10743;52.160;20.910;2022-10-31T01:57:55;56.80;;;27.00;;
21170;SDS011;10743;52.160;20.910;2022-10-31T02:00:28;52.25;;;26.13;;
21170;SDS011;10743;52.160;20.910;2022-10-31T02:02:55;54.08;;;26.60;;
21170;SDS011;10743;52.160;20.910;2022-10-31T02:05:23;54.90;;;26.80;;
21170;SDS011;10743;52.160;20.910;2022-10-31T02:07:55;55.33;;;27.00;;
21170;SDS011;10743;52.160;20.910;2022-10-31T02:10:29;50.97;;;26.15;;
21170;SDS011;10743;52.160;20.910;2022-10-31T02:13:00;61.67;;;27.67;;
21170;SDS011;10743;52.160;20.910;2022-10-31T02:15:35;58.27;;;28.80;;
21170;SDS011;10743;52.160;20.910;2022-10-31T02:18:04;57.30;;;28.07;;
21170;SDS011;10743;52.160;20.910;2022-10-31T02:20:32;53.23;;;27.30;;
21170;SDS011;10743;52.160;20.910;2022-10-31T02:23:20;57.23;;;27.53;;
21170;SDS011;10743;52.160;20.910;2022-10-31T02:26:22;57.67;;;27.73;;
21170;SDS011;10743;52.160;20.910;2022-10-31T02:31:56;54.47;;;27.10;;
21170;SDS011;10743;52.160;20.910;2022-10-31T02:34:42;51.13;;;26.23;;
21170;SDS011;10743;52.160;20.910;2022-10-31T02:37:37;60.17;;;28.27;;
21170;SDS011;10743;52.160;20.910;2022-10-31T02:40:33;58.87;;;27.87;;
21170;SDS011;10743;52.160;20.910;2022-10-31T02:43:27;55.63;;;27.50;;
21170;SDS011;10743;52.160;20.910;2022-10-31T02:46:03;51.47;;;27.13;;
21170;SDS011;10743;52.160;20.910;2022-10-31T02:48:40;59.33;;;27.90;;
21170;SDS011;10743;52.160;20.910;2022-10-31T02:51:10;63.17;;;29.10;;
21170;SDS011;10743;52.160;20.910;2022-10-31T02:53:38;51.87;;;27.13;;
21170;SDS011;10743;52.160;20.910;2022-10-31T02:56:17;57.77;;;25.73;;
21170;SDS011;10743;52.160;20.910;2022-10-31T02:58:49;56.60;;;27.87;;
21170;SDS011;10743;52.160;20.910;2022-10-31T03:07:05;47.27;;;25.10;;
21170;SDS011;10743;52.160;20.910;2022-10-31T03:10:15;48.80;;;25.67;;
21170;SDS011;10743;52.160;20.910;2022-10-31T03:12:56;52.20;;;25.03;;
21170;SDS011;10743;52.160;20.910;2022-10-31T03:15:36;57.97;;;26.10;;
21170;SDS011;10743;52.160;20.910;2022-10-31T03:18:21;47.60;;;24.93;;
21170;SDS011;10743;52.160;20.910;2022-10-31T03:20:58;51.37;;;24.47;;
21170;SDS011;10743;52.160;20.910;2022-10-31T03:23:40;50.97;;;24.33;;
21170;SDS011;10743;52.160;20.910;2022-10-31T03:26:17;47.13;;;25.73;;
21170;SDS011;10743;52.160;20.910;2022-10-31T03:28:47;51.23;;;24.77;;
21170;SDS011;10743;52.160;20.910;2022-10-31T03:31:23;48.13;;;25.50;;
21170;SDS011;10743;52.160;20.910;2022-10-31T03:33:56;48.67;;;25.13;;
21170;SDS011;10743;52.160;20.910;2022-10-31T03:36:29;52.47;;;24.80;;
21170;SDS011;10743;52.160;20.910;2022-10-31T03:39:00;46.43;;;24.03;;
21170;SDS011;10743;52.160;20.910;2022-10-31T03:41:31;49.37;;;25.83;;
21170;SDS011;10743;52.160;20.910;2022-10-31T03:44:04;45.03;;;24.43;;
21170;SDS011;10743;52.160;20.910;2022-10-31T03:46:35;47.07;;;24.40;;
21170;SDS011;10743;52.160;20.910;2022-10-31T03:49:03;54.30;;;25.33;;
21170;SDS011;10743;52.160;20.910;2022-10-31T03:51:39;45.57;;;23.40;;
21170;SDS011;10743;52.160;20.910;2022-10-31T03:54:42;48.40;;;24.30;;
21170;SDS011;10743;52.160;20.910;2022-10-31T04:00:10;42.43;;;23.77;;
21170;SDS011;10743;52.160;20.910;2022-10-31T04:02:48;45.37;;;23.53;;
21170;SDS011;10743;52.160;20.910;2022-10-31T04:05:30;42.03;;;22.47;;
21170;SDS011;10743;52.160;20.910;2022-10-31T04:08:01;47.77;;;23.17;;
21170;SDS011;10743;52.160;20.910;2022-10-31T04:10:33;40.50;;;23.70;;
21170;SDS011;10743;52.160;20.910;2022-10-31T04:13:08;46.03;;;24.33;;
21170;SDS011;10743;52.160;20.910;2022-10-31T04:15:46;45.30;;;23.77;;
21170;SDS011;10743;52.160;20.910;2022-10-31T04:18:16;46.43;;;23.80;;
21170;SDS011;10743;52.160;20.910;2022-10-31T04:20:43;41.43;;;23.83;;
21170;SDS011;10743;52.160;20.910;2022-10-31T04:23:23;41.47;;;23.00;;
21170;SDS011;10743;52.160;20.910;2022-10-31T04:25:52;43.57;;;23.60;;
21170;SDS011;10743;52.160;20.910;2022-10-31T04:28:20;44.60;;;23.87;;
21170;SDS011;10743;52.160;20.910;2022-10-31T04:30:48;46.73;;;24.73;;
21170;SDS011;10743;52.160;20.910;2022-10-31T04:33:15;43.53;;;23.97;;
21170;SDS011;10743;52.160;20.910;2022-10-31T04:35:45;44.50;;;23.20;;
21170;SDS011;10743;52.160;20.910;2022-10-31T04:38:12;44.30;;;23.67;;
21170;SDS011;10743;52.160;20.910;2022-10-31T04:40:40;47.17;;;23.63;;
21170;SDS011;10743;52.160;20.910;2022-10-31T04:43:39;42.83;;;22.77;;
21170;SDS011;10743;52.160;20.910;2022-10-31T04:46:05;43.30;;;23.70;;
21170;SDS011;10743;52.160;20.910;2022-10-31T04:48:32;40.13;;;22.37;;
21170;SDS011;10743;52.160;20.910;2022-10-31T04:51:03;44.33;;;22.70;;
21170;SDS011;10743;52.160;20.910;2022-10-31T04:53:31;43.50;;;21.30;;
21170;SDS011;10743;52.160;20.910;2022-10-31T04:56:16;45.23;;;22.27;;
21170;SDS011;10743;52.160;20.910;2022-10-31T04:58:46;46.93;;;22.70;;
21170;SDS011;10743;52.160;20.910;2022-10-31T05:01:13;39.40;;;21.77;;
21170;SDS011;10743;52.160;20.910;2022-10-31T05:03:40;37.30;;;21.37;;
21170;SDS011;10743;52.160;20.910;2022-10-31T05:06:07;40.83;;;21.83;;
21170;SDS011;10743;52.160;20.910;2022-10-31T05:08:38;39.27;;;20.17;;
21170;SDS011;10743;52.160;20.910;2022-10-31T05:11:06;41.07;;;22.57;;
21170;SDS011;10743;52.160;20.910;2022-10-31T05:13:33;41.83;;;20.87;;
21170;SDS011;10743;52.160;20.910;2022-10-31T05:16:12;43.27;;;21.00;;
21170;SDS011;10743;52.160;20.910;2022-10-31T05:18:57;38.67;;;20.20;;
21170;SDS011;10743;52.160;20.910;2022-10-31T05:21:42;39.40;;;21.27;;
21170;SDS011;10743;52.160;20.910;2022-10-31T05:24:10;40.90;;;21.23;;
21170;SDS011;10743;52.160;20.910;2022-10-31T05:26:39;38.37;;;20.53;;
21170;SDS011;10743;52.160;20.910;2022-10-31T05:29:06;40.70;;;21.80;;
21170;SDS011;10743;52.160;20.910;2022-10-31T05:31:34;39.57;;;21.17;;
21170;SDS011;10743;52.160;20.910;2022-10-31T05:34:03;40.97;;;21.33;;
21170;SDS011;10743;52.160;20.910;2022-10-31T05:36:42;36.27;;;20.37;;
21170;SDS011;10743;52.160;20.910;2022-10-31T05:39:16;40.23;;;19.87;;
21170;SDS011;10743;52.160;20.910;2022-10-31T05:41:49;38.07;;;20.40;;
21170;SDS011;10743;52.160;20.910;2022-10-31T05:44:24;37.33;;;19.90;;
21170;SDS011;10743;52.160;20.910;2022-10-31T05:47:10;34.57;;;20.00;;
21170;SDS011;10743;52.160;20.910;2022-10-31T05:50:09;40.57;;;19.60;;
21170;SDS011;10743;52.160;20.910;2022-10-31T05:52:58;42.43;;;19.87;;
21170;SDS011;10743;52.160;20.910;2022-10-31T05:55:32;38.30;;;19.07;;
21170;SDS011;10743;52.160;20.910;2022-10-31T05:58:11;36.53;;;19.57;;
21170;SDS011;10743;52.160;20.910;2022-10-31T06:00:45;35.27;;;19.07;;
21170;SDS011;10743;52.160;20.910;2022-10-31T06:03:14;35.90;;;19.33;;
21170;SDS011;10743;52.160;20.910;2022-10-31T06:05:44;34.70;;;18.27;;
21170;SDS011;10743;52.160;20.910;2022-10-31T06:08:19;35.43;;;18.83;;
21170;SDS011;10743;52.160;20.910;2022-10-31T06:10:47;34.87;;;17.67;;
21170;SDS011;10743;52.160;20.910;2022-10-31T06:13:19;35.93;;;17.93;;
21170;SDS011;10743;52.160;20.910;2022-10-31T06:15:57;36.73;;;17.67;;
21170;SDS011;10743;52.160;20.910;2022-10-31T06:18:31;30.13;;;17.17;;
21170;SDS011;10743;52.160;20.910;2022-10-31T06:20:59;36.87;;;17.40;;
21170;SDS011;10743;52.160;20.910;2022-10-31T06:23:26;35.37;;;17.87;;
21170;SDS011;10743;52.160;20.910;2022-10-31T06:26:12;37.53;;;17.77;;
21170;SDS011;10743;52.160;20.910;2022-10-31T06:28:38;29.60;;;16.33;;
21170;SDS011;10743;52.160;20.910;2022-10-31T06:31:17;28.70;;;14.80;;
21170;SDS011;10743;52.160;20.910;2022-10-31T06:33:44;28.17;;;15.07;;
21170;SDS011;10743;52.160;20.910;2022-10-31T06:36:11;27.63;;;14.93;;
21170;SDS011;10743;52.160;20.910;2022-10-31T06:38:38;32.00;;;15.57;;
21170;SDS011;10743;52.160;20.910;2022-10-31T06:41:07;25.93;;;13.93;;
21170;SDS011;10743;52.160;20.910;2022-10-31T06:43:41;27.70;;;14.23;;
21170;SDS011;10743;52.160;20.910;2022-10-31T06:46:37;26.47;;;14.23;;
21170;SDS011;10743;52.160;20.910;2022-10-31T06:49:18;28.87;;;14.70;;
21170;SDS011;10743;52.160;20.910;2022-10-31T06:51:49;32.70;;;16.07;;
21170;SDS011;10743;52.160;20.910;2022-10-31T06:54:17;32.90;;;16.43;;
21170;SDS011;10743;52.160;20.910;2022-10-31T06:56:47;36.73;;;16.80;;
21170;SDS011;10743;52.160;20.910;2022-10-31T06:59:14;34.63;;;17.70;;
21170;SDS011;10743;52.160;20.910;2022-10-31T07:02:00;35.97;;;18.03;;
21170;SDS011;10743;52.160;20.910;2022-10-31T07:04:28;32.87;;;18.20;;
21170;SDS011;10743;52.160;20.910;2022-10-31T07:06:55;38.27;;;18.20;;
21170;SDS011;10743;52.160;20.910;2022-10-31T07:09:22;34.33;;;16.87;;
21170;SDS011;10743;52.160;20.910;2022-10-31T07:11:51;37.73;;;17.00;;
21170;SDS011;10743;52.160;20.910;2022-10-31T07:14:19;33.67;;;16.70;;
21170;SDS011;10743;52.160;20.910;2022-10-31T07:16:50;33.50;;;15.80;;
21170;SDS011;10743;52.160;20.910;2022-10-31T07:19:22;31.17;;;14.87;;
21170;SDS011;10743;52.160;20.910;2022-10-31T07:21:49;29.63;;;14.90;;
21170;SDS011;10743;52.160;20.910;2022-10-31T07:24:17;26.07;;;14.53;;
21170;SDS011;10743;52.160;20.910;2022-10-31T07:27:19;30.23;;;15.20;;
21170;SDS011;10743;52.160;20.910;2022-10-31T07:29:47;31.80;;;14.93;;
21170;SDS011;10743;52.160;20.910;2022-10-31T07:32:15;26.67;;;13.83;;
21170;SDS011;10743;52.160;20.910;2022-10-31T07:34:50;29.03;;;14.53;;
21170;SDS011;10743;52.160;20.910;2022-10-31T07:37:20;27.90;;;14.50;;
21170;SDS011;10743;52.160;20.910;2022-10-31T07:39:47;27.97;;;14.73;;
21170;SDS011;10743;52.160;20.910;2022-10-31T07:42:14;28.43;;;14.73;;
21170;SDS011;10743;52.160;20.910;2022-10-31T07:44:44;29.63;;;14.30;;
21170;SDS011;10743;52.160;20.910;2022-10-31T07:47:29;27.30;;;14.40;;
21170;SDS011;10743;52.160;20.910;2022-10-31T07:50:19;38.23;;;16.20;;
21170;SDS011;10743;52.160;20.910;2022-10-31T07:53:20;30.50;;;14.07;;
21170;SDS011;10743;52.160;20.910;2022-10-31T07:55:51;30.87;;;15.07;;
21170;SDS011;10743;52.160;20.910;2022-10-31T07:58:18;25.73;;;13.90;;
21170;SDS011;10743;52.160;20.910;2022-10-31T08:00:46;28.88;;;14.65;;
21170;SDS011;10743;52.160;20.910;2022-10-31T08:03:22;30.10;;;14.60;;
21170;SDS011;10743;52.160;20.910;2022-10-31T08:06:24;32.60;;;15.40;;
21170;SDS011;10743;52.160;20.910;2022-10-31T08:09:10;32.03;;;15.43;;
21170;SDS011;10743;52.160;20.910;2022-10-31T08:11:39;28.42;;;14.77;;
21170;SDS011;10743;52.160;20.910;2022-10-31T08:14:06;32.00;;;16.00;;
21170;SDS011;10743;52.160;20.910;2022-10-31T08:16:33;31.70;;;15.20;;
21170;SDS011;10743;52.160;20.910;2022-10-31T08:19:03;29.90;;;15.13;;
21170;SDS011;10743;52.160;20.910;2022-10-31T08:21:35;27.58;;;14.90;;
21170;SDS011;10743;52.160;20.910;2022-10-31T08:24:03;32.13;;;15.73;;
21170;SDS011;10743;52.160;20.910;2022-10-31T08:26:32;24.77;;;14.17;;
21170;SDS011;10743;52.160;20.910;2022-10-31T08:28:59;27.13;;;14.87;;
21170;SDS011;10743;52.160;20.910;2022-10-31T08:31:30;30.65;;;15.00;;
21170;SDS011;10743;52.160;20.910;2022-10-31T08:34:40;28.15;;;15.15;;
21170;SDS011;10743;52.160;20.910;2022-10-31T08:37:36;27.67;;;15.32;;
21170;SDS011;10743;52.160;20.910;2022-10-31T08:40:04;29.40;;;14.93;;
21170;SDS011;10743;52.160;20.910;2022-10-31T08:42:33;27.95;;;15.57;;
21170;SDS011;10743;52.160;20.910;2022-10-31T08:45:01;28.67;;;15.50;;
21170;SDS011;10743;52.160;20.910;2022-10-31T08:47:30;32.35;;;16.33;;
21170;SDS011;10743;52.160;20.910;2022-10-31T08:49:57;37.15;;;15.95;;
21170;SDS011;10743;52.160;20.910;2022-10-31T08:52:24;31.50;;;16.48;;
21170;SDS011;10743;52.160;20.910;2022-10-31T08:55:12;30.30;;;16.20;;
21170;SDS011;10743;52.160;20.910;2022-10-31T08:57:58;30.67;;;16.92;;
21170;SDS011;10743;52.160;20.910;2022-10-31T09:00:34;28.55;;;15.40;;
21170;SDS011;10743;52.160;20.910;2022-10-31T09:03:15;33.03;;;16.75;;
21170;SDS011;10743;52.160;20.910;2022-10-31T09:05:46;31.40;;;17.15;;
21170;SDS011;10743;52.160;20.910;2022-10-31T09:08:14;30.30;;;16.65;;
21170;SDS011;10743;52.160;20.910;2022-10-31T09:10:45;28.80;;;15.35;;
21170;SDS011;10743;52.160;20.910;2022-10-31T09:13:17;28.67;;;15.50;;
21170;SDS011;10743;52.160;20.910;2022-10-31T09:16:05;27.98;;;15.60;;
21170;SDS011;10743;52.160;20.910;2022-10-31T09:18:33;34.35;;;17.30;;
21170;SDS011;10743;52.160;20.910;2022-10-31T09:21:00;29.25;;;16.17;;
21170;SDS011;10743;52.160;20.910;2022-10-31T09:23:29;35.65;;;16.83;;
21170;SDS011;10743;52.160;20.910;2022-10-31T09:25:59;31.55;;;15.82;;
21170;SDS011;10743;52.160;20.910;2022-10-31T09:28:33;39.80;;;18.77;;
21170;SDS011;10743;52.160;20.910;2022-10-31T09:31:06;63.22;;;28.52;;
21170;SDS011;10743;52.160;20.910;2022-10-31T09:33:52;32.03;;;17.45;;
21170;SDS011;10743;52.160;20.910;2022-10-31T09:36:35;156.73;;;80.88;;
21170;SDS011;10743;52.160;20.910;2022-10-31T09:39:10;50.95;;;24.08;;
21170;SDS011;10743;52.160;20.910;2022-10-31T09:51:08;35.42;;;17.20;;
21170;SDS011;10743;52.160;20.910;2022-10-31T09:54:02;35.08;;;16.95;;
21170;SDS011;10743;52.160;20.910;2022-10-31T09:56:37;32.63;;;17.60;;
21170;SDS011;10743;52.160;20.910;2022-10-31T09:59:05;34.65;;;17.65;;
21170;SDS011;10743;52.160;20.910;2022-10-31T10:01:49;32.85;;;17.55;;
21170;SDS011;10743;52.160;20.910;2022-10-31T10:04:40;35.15;;;18.30;;
21170;SDS011;10743;52.160;20.910;2022-10-31T10:07:35;31.35;;;18.15;;
21170;SDS011;10743;52.160;20.910;2022-10-31T10:14:09;71.45;;;30.20;;
21170;SDS011;10743;52.160;20.910;2022-10-31T10:17:11;95.95;;;34.97;;
21170;SDS011;10743;52.160;20.910;2022-10-31T10:26:02;34.15;;;18.08;;
21170;SDS011;10743;52.160;20.910;2022-10-31T10:28:47;35.92;;;18.50;;
21170;SDS011;10743;52.160;20.910;2022-10-31T10:31:23;40.10;;;18.75;;
21170;SDS011;10743;52.160;20.910;2022-10-31T10:36:28;33.95;;;17.77;;
21170;SDS011;10743;52.160;20.910;2022-10-31T10:39:14;42.30;;;20.20;;
21170;SDS011;10743;52.160;20.910;2022-10-31T10:41:54;38.67;;;18.90;;
21170;SDS011;10743;52.160;20.910;2022-10-31T10:44:46;34.60;;;18.52;;
21170;SDS011;10743;52.160;20.910;2022-10-31T10:47:36;32.85;;;17.90;;
21170;SDS011;10743;52.160;20.910;2022-10-31T10:50:18;44.67;;;18.27;;
21170;SDS011;10743;52.160;20.910;2022-10-31T10:53:03;35.20;;;18.67;;
21170;SDS011;10743;52.160;20.910;2022-10-31T10:56:00;31.13;;;17.60;;
21170;SDS011;10743;52.160;20.910;2022-10-31T10:58:38;35.20;;;16.60;;
21170;SDS011;10743;52.160;20.910;2022-10-31T11:01:10;31.17;;;17.55;;
21170;SDS011;10743;52.160;20.910;2022-10-31T11:03:40;33.88;;;17.13;;
21170;SDS011;10743;52.160;20.910;2022-10-31T11:09:14;34.70;;;15.35;;
21170;SDS011;10743;52.160;20.910;2022-10-31T11:11:42;32.13;;;16.55;;
21170;SDS011;10743;52.160;20.910;2022-10-31T11:14:13;32.88;;;16.33;;
21170;SDS011;10743;52.160;20.910;2022-10-31T11:16:42;27.90;;;16.50;;
21170;SDS011;10743;52.160;20.910;2022-10-31T11:19:16;32.83;;;16.90;;
21170;SDS011;10743;52.160;20.910;2022-10-31T11:21:52;31.65;;;17.05;;
21170;SDS011;10743;52.160;20.910;2022-10-31T11:24:24;29.38;;;16.67;;
21170;SDS011;10743;52.160;20.910;2022-10-31T11:27:03;30.15;;;17.08;;
21170;SDS011;10743;52.160;20.910;2022-10-31T11:29:45;31.33;;;16.58;;
21170;SDS011;10743;52.160;20.910;2022-10-31T11:32:17;35.42;;;17.83;;
21170;SDS011;10743;52.160;20.910;2022-10-31T11:34:52;37.97;;;19.17;;
21170;SDS011;10743;52.160;20.910;2022-10-31T11:37:32;34.75;;;17.38;;
21170;SDS011;10743;52.160;20.910;2022-10-31T11:40:03;38.65;;;18.60;;
21170;SDS011;10743;52.160;20.910;2022-10-31T11:42:39;40.75;;;19.92;;
21170;SDS011;10743;52.160;20.910;2022-10-31T11:45:18;41.05;;;19.23;;
21170;SDS011;10743;52.160;20.910;2022-10-31T11:47:49;36.33;;;18.92;;
21170;SDS011;10743;52.160;20.910;2022-10-31T11:50:27;33.90;;;18.40;;
21170;SDS011;10743;52.160;20.910;2022-10-31T11:53:11;38.85;;;19.15;;
21170;SDS011;10743;52.160;20.910;2022-10-31T11:55:45;37.78;;;19.85;;
21170;SDS011;10743;52.160;20.910;2022-10-31T11:58:37;42.95;;;20.70;;
21170;SDS011;10743;52.160;20.910;2022-10-31T12:01:03;51.65;;;24.20;;
21170;SDS011;10743;52.160;20.910;2022-10-31T12:06:20;48.13;;;23.33;;
21170;SDS011;10743;52.160;20.910;2022-10-31T12:08:51;48.60;;;22.63;;
21170;SDS011;10743;52.160;20.910;2022-10-31T12:11:32;45.35;;;22.05;;
21170;SDS011;10743;52.160;20.910;2022-10-31T12:18:08;40.00;;;19.70;;
21170;SDS011;10743;52.160;20.910;2022-10-31T12:20:59;41.67;;;19.73;;
21170;SDS011;10743;52.160;20.910;2022-10-31T12:24:12;44.35;;;19.38;;
21170;SDS011;10743;52.160;20.910;2022-10-31T12:27:03;52.33;;;21.98;;
21170;SDS011;10743;52.160;20.910;2022-10-31T12:33:13;47.45;;;21.67;;
21170;SDS011;10743;52.160;20.910;2022-10-31T12:36:03;41.53;;;19.95;;
21170;SDS011;10743;52.160;20.910;2022-10-31T12:38:55;47.28;;;20.77;;
21170;SDS011;10743;52.160;20.910;2022-10-31T12:41:46;50.22;;;22.38;;
21170;SDS011;10743;52.160;20.910;2022-10-31T12:44:36;44.50;;;20.75;;
21170;SDS011;10743;52.160;20.910;2022-10-31T12:47:36;45.45;;;20.55;;
21170;SDS011;10743;52.160;20.910;2022-10-31T12:59:21;45.58;;;21.73;;
21170;SDS011;10743;52.160;20.910;2022-10-31T13:02:02;48.47;;;21.88;;
21170;SDS011;10743;52.160;20.910;2022-10-31T13:04:53;45.22;;;19.95;;
21170;SDS011;10743;52.160;20.910;2022-10-31T13:10:40;46.55;;;21.63;;
21170;SDS011;10743;52.160;20.910;2022-10-31T13:13:23;50.70;;;22.60;;
21170;SDS011;10743;52.160;20.910;2022-10-31T13:16:48;49.40;;;22.13;;
21170;SDS011;10743;52.160;20.910;2022-10-31T13:19:02;53.05;;;23.25;;
21170;SDS011;10743;52.160;20.910;2022-10-31T13:21:57;53.28;;;21.80;;
21170;SDS011;10743;52.160;20.910;2022-10-31T13:24:56;45.28;;;21.23;;
21170;SDS011;10743;52.160;20.910;2022-10-31T13:27:53;46.00;;;20.98;;
21170;SDS011;10743;52.160;20.910;2022-10-31T13:30:36;56.00;;;23.85;;
21170;SDS011;10743;52.160;20.910;2022-10-31T13:33:14;50.60;;;23.58;;
21170;SDS011;10743;52.160;20.910;2022-10-31T13:39:08;52.05;;;24.65;;
21170;SDS011;10743;52.160;20.910;2022-10-31T13:44:35;60.10;;;28.55;;
21170;SDS011;10743;52.160;20.910;2022-10-31T13:50:04;49.13;;;22.35;;
21170;SDS011;10743;52.160;20.910;2022-10-31T13:52:46;42.95;;;20.65;;
21170;SDS011;10743;52.160;20.910;2022-10-31T13:55:34;47.10;;;22.63;;
21170;SDS011;10743;52.160;20.910;2022-10-31T13:58:23;44.63;;;21.05;;
21170;SDS011;10743;52.160;20.910;2022-10-31T14:04:05;44.65;;;21.35;;
21170;SDS011;10743;52.160;20.910;2022-10-31T14:06:52;51.90;;;25.05;;
21170;SDS011;10743;52.160;20.910;2022-10-31T14:09:32;50.38;;;24.83;;
21170;SDS011;10743;52.160;20.910;2022-10-31T14:12:02;48.75;;;22.98;;
21170;SDS011;10743;52.160;20.910;2022-10-31T14:14:35;54.75;;;24.20;;
21170;SDS011;10743;52.160;20.910;2022-10-31T14:20:21;58.53;;;28.52;;
21170;SDS011;10743;52.160;20.910;2022-10-31T14:23:09;62.30;;;28.08;;
21170;SDS011;10743;52.160;20.910;2022-10-31T14:31:39;56.33;;;26.65;;
21170;SDS011;10743;52.160;20.910;2022-10-31T14:34:22;54.80;;;24.15;;
21170;SDS011;10743;52.160;20.910;2022-10-31T14:40:19;52.05;;;22.95;;
21170;SDS011;10743;52.160;20.910;2022-10-31T14:43:07;50.38;;;22.08;;
21170;SDS011;10743;52.160;20.910;2022-10-31T14:45:46;54.85;;;22.42;;
21170;SDS011;10743;52.160;20.910;2022-10-31T14:51:20;51.97;;;22.60;;
21170;SDS011;10743;52.160;20.910;2022-10-31T14:53:50;51.95;;;22.02;;
21170;SDS011;10743;52.160;20.910;2022-10-31T14:56:27;55.95;;;24.20;;
21170;SDS011;10743;52.160;20.910;2022-10-31T14:59:01;54.75;;;24.00;;
21170;SDS011;10743;52.160;20.910;2022-10-31T15:01:35;58.33;;;23.83;;
21170;SDS011;10743;52.160;20.910;2022-10-31T15:04:11;53.50;;;22.00;;
21170;SDS011;10743;52.160;20.910;2022-10-31T15:06:50;48.15;;;21.02;;
21170;SDS011;10743;52.160;20.910;2022-10-31T15:09:28;55.20;;;22.77;;
21170;SDS011;10743;52.160;20.910;2022-10-31T15:12:00;53.95;;;22.38;;
21170;SDS011;10743;52.160;20.910;2022-10-31T15:15:11;61.05;;;23.48;;
21170;SDS011;10743;52.160;20.910;2022-10-31T15:18:00;56.05;;;22.88;;
21170;SDS011;10743;52.160;20.910;2022-10-31T15:20:31;56.47;;;23.98;;
21170;SDS011;10743;52.160;20.910;2022-10-31T15:23:10;56.25;;;23.40;;
21170;SDS011;10743;52.160;20.910;2022-10-31T15:25:46;65.38;;;27.30;;
21170;SDS011;10743;52.160;20.910;2022-10-31T15:28:14;60.80;;;25.60;;
21170;SDS011;10743;52.160;20.910;2022-10-31T15:30:49;59.30;;;24.67;;
21170;SDS011;10743;52.160;20.910;2022-10-31T15:33:23;63.22;;;28.25;;
21170;SDS011;10743;52.160;20.910;2022-10-31T15:36:20;50.53;;;21.58;;
21170;SDS011;10743;52.160;20.910;2022-10-31T15:38:57;54.08;;;21.98;;
21170;SDS011;10743;52.160;20.910;2022-10-31T15:41:30;53.83;;;21.50;;
21170;SDS011;10743;52.160;20.910;2022-10-31T15:44:10;45.00;;;19.85;;
21170;SDS011;10743;52.160;20.910;2022-10-31T15:46:42;54.47;;;21.30;;
21170;SDS011;10743;52.160;20.910;2022-10-31T15:49:12;46.85;;;20.38;;
21170;SDS011;10743;52.160;20.910;2022-10-31T15:51:52;44.03;;;20.17;;
21170;SDS011;10743;52.160;20.910;2022-10-31T15:54:20;45.38;;;20.15;;
21170;SDS011;10743;52.160;20.910;2022-10-31T15:56:47;49.92;;;21.08;;
21170;SDS011;10743;52.160;20.910;2022-10-31T15:59:19;52.70;;;21.55;;
21170;SDS011;10743;52.160;20.910;2022-10-31T16:02:00;57.65;;;22.60;;
21170;SDS011;10743;52.160;20.910;2022-10-31T16:04:36;49.70;;;22.02;;
21170;SDS011;10743;52.160;20.910;2022-10-31T16:07:13;49.40;;;22.67;;
21170;SDS011;10743;52.160;20.910;2022-10-31T16:09:59;53.38;;;23.38;;
21170;SDS011;10743;52.160;20.910;2022-10-31T16:12:31;54.75;;;23.35;;
21170;SDS011;10743;52.160;20.910;2022-10-31T16:15:02;51.65;;;21.60;;
21170;SDS011;10743;52.160;20.910;2022-10-31T16:17:31;52.55;;;21.85;;
21170;SDS011;10743;52.160;20.910;2022-10-31T16:19:59;52.08;;;20.80;;
21170;SDS011;10743;52.160;20.910;2022-10-31T16:22:36;56.58;;;22.45;;
21170;SDS011;10743;52.160;20.910;2022-10-31T16:27:38;58.75;;;26.30;;
21170;SDS011;10743;52.160;20.910;2022-10-31T16:33:02;62.17;;;25.70;;
21170;SDS011;10743;52.160;20.910;2022-10-31T16:35:34;65.97;;;25.67;;